Archdale, North Carolina
Current Conditions -  °F | °C
As of 10:54 PM on Wednesday 22 Oct 2014 (Local Time) from KGSO Reporting Station
Clear Clear  
Wind Chill: 49°   Ceiling: Unl
Heat Index: 49°   Visibility: 10mi
Dew Point: 39°   Wind: 0mph
Humidity: 69%   Direction: NA
Pressure: 30.06"   Gusts: NA
Location:  35.9136°N, 79.9465°W
Report Text: KGSO 230254Z 00000KT 10SM CLR 09/04 A3006 RMK AO2 SLP175 T00940039 52002
Loading
Personal Weather Stations






























Interactive Weather Map
Tropical Storm Tracking
New forecast layout! Learn more

10-Day Weather Forecast

Advertisements
Track Severe Weather on mobile